Time;durP1;ratioP1;P1;durP2;ratioP2;P2;SDS_P1;SDS_P2;PMS_P1;PMS_P2;Temp;Humidity;BMP_temperature;BMP_pressure;BME280_temperature;BME280_humidity;BME280_pressure;Samples;Min_cycle;Max_cycle;Signal;HPM_P1;HPM_P2
2024/02/12 00:03:48;;;;;;;1.33;1.23;;;;;;;;;;9908167;28;20051;-72
2024/02/12 00:08:43;;;;;;;1.83;1.45;;;;;;;;;;9907028;28;20466;-72
2024/02/12 00:13:35;;;;;;;4.35;2.45;;;;;;;;;;9907765;28;20129;-71
2024/02/12 00:18:27;;;;;;;2.10;1.90;;;;;;;;;;9906581;28;20526;-72
2024/02/12 00:23:19;;;;;;;1.33;1.23;;;;;;;;;;9906386;28;20078;-72
2024/02/12 00:28:11;;;;;;;1.50;1.17;;;;;;;;;;9906523;28;20054;-72
2024/02/12 00:33:09;;;;;;;1.05;1.05;;;;;;;;;;9906236;28;20411;-72
2024/02/12 00:38:01;;;;;;;1.30;1.10;;;;;;;;;;9905872;28;20057;-72
2024/02/12 00:42:58;;;;;;;1.00;1.00;;;;;;;;;;9906273;28;20310;-72
2024/02/12 00:47:50;;;;;;;1.00;1.00;;;;;;;;;;9906500;28;20047;-72
2024/02/12 00:52:43;;;;;;;0.80;0.80;;;;;;;;;;9906154;28;20082;-72
2024/02/12 00:57:35;;;;;;;0.90;0.90;;;;;;;;;;9905253;28;20093;-72
2024/02/12 01:02:28;;;;;;;0.93;0.90;;;;;;;;;;9905959;28;20055;-72
2024/02/12 01:07:20;;;;;;;3.55;1.13;;;;;;;;;;9905546;28;20375;-72
2024/02/12 01:12:12;;;;;;;0.90;0.90;;;;;;;;;;9908939;28;20396;-72
2024/02/12 01:17:04;;;;;;;0.88;0.88;;;;;;;;;;9912837;28;20058;-72
2024/02/12 01:21:56;;;;;;;0.88;0.88;;;;;;;;;;9904334;28;20054;-72
2024/02/12 01:26:48;;;;;;;2.05;1.00;;;;;;;;;;9912323;28;20058;-71
2024/02/12 01:31:40;;;;;;;0.90;0.90;;;;;;;;;;9912862;28;20110;-72
2024/02/12 01:36:32;;;;;;;1.10;1.10;;;;;;;;;;9913649;28;20051;-71
2024/02/12 01:41:24;;;;;;;1.00;1.00;;;;;;;;;;9912607;28;20054;-71
2024/02/12 01:46:16;;;;;;;0.93;0.90;;;;;;;;;;9912542;28;20376;-72
2024/02/12 01:51:09;;;;;;;0.90;0.90;;;;;;;;;;9912886;28;20106;-72
2024/02/12 01:56:10;;;;;;;1.98;1.10;;;;;;;;;;9912342;28;20055;-71
2024/02/12 02:01:02;;;;;;;1.20;1.10;;;;;;;;;;9894568;28;20156;-71
2024/02/12 02:05:55;;;;;;;0.98;0.93;;;;;;;;;;9912108;28;20044;-72
2024/02/12 02:10:48;;;;;;;1.20;1.10;;;;;;;;;;9910952;28;20050;-72
2024/02/12 02:15:42;;;;;;;2.35;1.38;;;;;;;;;;9911364;28;20407;-71
2024/02/12 02:20:36;;;;;;;1.38;1.30;;;;;;;;;;9910683;28;20043;-72
2024/02/12 02:25:28;;;;;;;2.67;2.47;;;;;;;;;;9909055;28;20054;-71
2024/02/12 02:30:21;;;;;;;3.38;2.75;;;;;;;;;;9910264;28;20047;-71
2024/02/12 02:35:13;;;;;;;1.85;1.75;;;;;;;;;;9911028;28;20055;-71
2024/02/12 02:40:08;;;;;;;4.18;2.55;;;;;;;;;;9910663;28;20439;-71
2024/02/12 02:45:00;;;;;;;2.40;2.20;;;;;;;;;;9909609;28;20089;-72
2024/02/12 02:49:52;;;;;;;5.93;2.75;;;;;;;;;;9892855;28;20105;-72
2024/02/12 02:54:45;;;;;;;3.25;3.03;;;;;;;;;;9910918;28;20411;-72
2024/02/12 02:59:37;;;;;;;2.55;2.35;;;;;;;;;;9908921;28;20395;-71
2024/02/12 03:04:28;;;;;;;2.63;2.42;;;;;;;;;;9908699;28;20062;-71
2024/02/12 03:09:21;;;;;;;2.95;2.17;;;;;;;;;;9910152;28;20098;-72
2024/02/12 03:14:14;;;;;;;2.63;2.42;;;;;;;;;;9908874;28;20141;-72
2024/02/12 03:19:06;;;;;;;2.72;2.45;;;;;;;;;;9908228;28;20082;-72
2024/02/12 03:23:59;;;;;;;2.75;2.55;;;;;;;;;;9908985;28;20082;-72
2024/02/12 03:28:51;;;;;;;2.63;2.42;;;;;;;;;;9908117;28;20062;-72
2024/02/12 03:33:48;;;;;;;3.13;2.92;;;;;;;;;;9908215;28;20133;-72
2024/02/12 03:38:42;;;;;;;3.17;2.47;;;;;;;;;;9908385;28;20051;-71
2024/02/12 03:43:37;;;;;;;3.03;2.75;;;;;;;;;;9908094;28;20089;-73
2024/02/12 04:04:01;;;;;;;2.60;2.40;;;;;;;;;;9906942;28;20126;-73
2024/02/12 04:08:53;;;;;;;2.45;2.15;;;;;;;;;;9906774;28;20043;-72
2024/02/12 04:13:46;;;;;;;2.67;2.03;;;;;;;;;;9906784;28;20051;-71
2024/02/12 04:18:41;;;;;;;2.40;2.20;;;;;;;;;;9906302;28;20062;-72
2024/02/12 04:23:33;;;;;;;2.60;2.40;;;;;;;;;;9907344;28;20047;-74
2024/02/12 04:28:25;;;;;;;2.63;2.42;;;;;;;;;;9906441;28;20043;-72
2024/02/12 04:33:17;;;;;;;5.10;3.33;;;;;;;;;;9905800;28;20047;-72
2024/02/12 04:38:09;;;;;;;2.50;2.30;;;;;;;;;;9906062;28;20051;-72
2024/02/12 04:43:01;;;;;;;3.10;2.65;;;;;;;;;;9905637;28;20051;-72
2024/02/12 04:47:53;;;;;;;2.38;2.20;;;;;;;;;;9905540;28;20075;-72
2024/02/12 04:52:45;;;;;;;2.45;2.20;;;;;;;;;;9906227;28;20087;-74
2024/02/12 04:57:38;;;;;;;3.55;3.25;;;;;;;;;;9905044;28;20058;-74
2024/02/12 05:02:31;;;;;;;3.30;3.00;;;;;;;;;;9906429;28;20055;-72
2024/02/12 05:07:28;;;;;;;3.97;3.03;;;;;;;;;;9904744;28;20451;-74
2024/02/12 05:12:20;;;;;;;3.60;3.30;;;;;;;;;;9905545;28;20053;-72
2024/02/12 05:17:12;;;;;;;3.55;3.25;;;;;;;;;;9904563;28;20393;-72
2024/02/12 05:27:14;;;;;;;3.00;2.65;;;;;;;;;;9905624;28;20082;-72
2024/02/12 05:32:07;;;;;;;2.67;2.47;;;;;;;;;;9904670;28;20055;-72
2024/02/12 05:36:58;;;;;;;3.05;2.75;;;;;;;;;;9905607;28;20102;-72
2024/02/12 05:41:51;;;;;;;3.22;2.85;;;;;;;;;;9904140;28;20339;-72
2024/02/12 05:46:43;;;;;;;3.72;2.65;;;;;;;;;;9905237;28;20043;-74
2024/02/12 05:51:35;;;;;;;4.07;3.63;;;;;;;;;;9904141;28;20069;-73
2024/02/12 05:56:27;;;;;;;2.85;2.35;;;;;;;;;;9905971;28;20196;-72
2024/02/12 06:01:19;;;;;;;2.60;2.40;;;;;;;;;;9911283;28;20139;-71
2024/02/12 06:06:15;;;;;;;4.38;3.40;;;;;;;;;;9910788;28;20051;-71
2024/02/12 06:11:07;;;;;;;4.35;3.53;;;;;;;;;;9915187;28;20614;-72
2024/02/12 06:15:59;;;;;;;4.00;3.65;;;;;;;;;;9941494;28;20057;-72
2024/02/12 06:20:51;;;;;;;3.03;2.65;;;;;;;;;;9930333;28;20055;-71
2024/02/12 06:25:43;;;;;;;5.10;3.72;;;;;;;;;;9945149;28;20142;-71
2024/02/12 06:30:36;;;;;;;5.50;3.30;;;;;;;;;;9945552;28;20051;-72
2024/02/12 06:35:29;;;;;;;4.95;2.60;;;;;;;;;;9945556;28;20414;-71
2024/02/12 06:40:21;;;;;;;2.83;2.63;;;;;;;;;;9944263;28;20087;-71
2024/02/12 06:45:16;;;;;;;2.67;2.47;;;;;;;;;;9939092;28;20050;-71
2024/02/12 06:50:09;;;;;;;2.85;2.65;;;;;;;;;;9942667;28;20050;-72
2024/02/12 06:55:02;;;;;;;3.13;2.83;;;;;;;;;;9941221;28;20131;-71
2024/02/12 06:59:54;;;;;;;3.10;2.80;;;;;;;;;;9945628;28;20188;-72
2024/02/12 07:04:47;;;;;;;3.10;2.83;;;;;;;;;;9944162;28;20149;-74
2024/02/12 07:09:39;;;;;;;10.35;9.32;;;;;;;;;;9943878;28;20042;-74
2024/02/12 07:14:31;;;;;;;26.05;23.27;;;;;;;;;;9942727;28;20121;-73
2024/02/12 07:19:23;;;;;;;15.48;12.25;;;;;;;;;;9944060;28;20487;-72
2024/02/12 07:24:16;;;;;;;9.70;8.63;;;;;;;;;;9943743;28;20050;-72
2024/02/12 07:29:08;;;;;;;11.50;10.40;;;;;;;;;;9926693;28;20047;-71
2024/02/12 07:34:02;;;;;;;24.05;21.75;;;;;;;;;;9943310;28;20102;-72
2024/02/12 07:38:56;;;;;;;11.95;9.57;;;;;;;;;;9943875;28;20422;-73
2024/02/12 07:43:48;;;;;;;19.63;15.95;;;;;;;;;;9939792;28;20736;-74
2024/02/12 07:48:41;;;;;;;21.38;18.27;;;;;;;;;;9936942;28;20051;-75
2024/02/12 07:53:33;;;;;;;10.88;8.57;;;;;;;;;;9943573;28;20046;-73
2024/02/12 07:58:25;;;;;;;23.02;20.63;;;;;;;;;;9943629;28;20142;-73
2024/02/12 08:03:18;;;;;;;17.15;15.35;;;;;;;;;;9908797;28;20090;-75
2024/02/12 08:08:10;;;;;;;14.05;8.38;;;;;;;;;;9916752;28;20119;-75
2024/02/12 08:13:02;;;;;;;13.43;10.77;;;;;;;;;;9904971;28;20118;-73
2024/02/12 08:17:53;;;;;;;15.13;11.68;;;;;;;;;;9906826;28;20063;-73
2024/02/12 08:22:46;;;;;;;15.68;13.98;;;;;;;;;;9888797;28;20427;-74
2024/02/12 08:27:37;;;;;;;11.32;10.10;;;;;;;;;;9907867;28;20039;-73
2024/02/12 08:32:29;;;;;;;13.18;11.10;;;;;;;;;;9905563;28;20274;-74
2024/02/12 08:37:22;;;;;;;35.00;12.88;;;;;;;;;;9906884;28;20041;-73
2024/02/12 08:42:14;;;;;;;13.63;12.00;;;;;;;;;;9903452;28;20058;-73
2024/02/12 08:47:06;;;;;;;13.63;12.23;;;;;;;;;;9905559;28;20043;-73
2024/02/12 08:51:58;;;;;;;20.08;17.13;;;;;;;;;;9905602;28;20051;-73
2024/02/12 08:56:51;;;;;;;18.05;15.75;;;;;;;;;;9904434;28;20626;-74
2024/02/12 09:01:43;;;;;;;19.58;16.38;;;;;;;;;;9905828;28;20424;-74
2024/02/12 09:06:35;;;;;;;18.13;14.50;;;;;;;;;;9905053;28;20063;-74
2024/02/12 09:11:27;;;;;;;17.40;14.98;;;;;;;;;;9902758;28;20166;-74
2024/02/12 09:16:21;;;;;;;17.25;15.20;;;;;;;;;;9905090;28;20054;-74
2024/02/12 09:21:13;;;;;;;15.82;13.73;;;;;;;;;;9904734;28;20047;-73
2024/02/12 09:26:08;;;;;;;18.02;14.43;;;;;;;;;;9905040;28;20044;-72
2024/02/12 09:31:00;;;;;;;16.42;13.48;;;;;;;;;;9906826;28;20146;-72
2024/02/12 09:35:52;;;;;;;22.30;14.07;;;;;;;;;;9911564;28;20477;-73
2024/02/12 09:40:45;;;;;;;21.90;13.95;;;;;;;;;;9912007;28;20039;-73
2024/02/12 09:45:44;;;;;;;14.77;12.98;;;;;;;;;;9894925;28;20092;-72
2024/02/12 09:50:37;;;;;;;14.48;12.65;;;;;;;;;;9911154;28;20043;-73
2024/02/12 09:55:31;;;;;;;16.50;12.55;;;;;;;;;;9911939;28;20537;-72
2024/02/12 10:00:23;;;;;;;14.82;13.18;;;;;;;;;;9911507;28;20043;-73
2024/02/12 10:05:23;;;;;;;18.15;16.15;;;;;;;;;;9910521;28;20061;-73
2024/02/12 10:10:17;;;;;;;19.02;16.27;;;;;;;;;;9910120;28;20040;-72
2024/02/12 10:15:13;;;;;;;20.30;15.55;;;;;;;;;;9911963;28;20051;-73
2024/02/12 10:20:09;;;;;;;25.13;18.60;;;;;;;;;;9909527;28;20078;-72
2024/02/12 10:25:02;;;;;;;25.27;20.60;;;;;;;;;;9911137;28;20050;-73
2024/02/12 10:30:01;;;;;;;26.83;22.00;;;;;;;;;;9910204;28;20054;-72
2024/02/12 10:34:55;;;;;;;25.55;18.30;;;;;;;;;;9911090;28;20054;-73
2024/02/12 10:39:50;;;;;;;25.92;20.63;;;;;;;;;;9910896;28;20451;-73
2024/02/12 10:44:43;;;;;;;21.40;14.73;;;;;;;;;;9907271;28;20172;-72
2024/02/12 10:49:38;;;;;;;18.90;15.13;;;;;;;;;;9892995;28;20430;-72
2024/02/12 10:54:30;;;;;;;18.50;15.32;;;;;;;;;;9896303;28;20200;-72
2024/02/12 10:59:23;;;;;;;20.02;14.32;;;;;;;;;;9909839;28;20046;-72
2024/02/12 11:04:18;;;;;;;21.90;15.25;;;;;;;;;;9909791;28;20047;-72
2024/02/12 11:09:10;;;;;;;19.38;13.48;;;;;;;;;;9909861;28;20113;-72
2024/02/12 11:14:05;;;;;;;21.80;15.23;;;;;;;;;;9909162;28;20063;-72
2024/02/12 11:18:59;;;;;;;24.50;15.40;;;;;;;;;;9909822;28;20068;-72
2024/02/12 11:24:04;;;;;;;16.85;13.43;;;;;;;;;;9907773;28;20466;-72
2024/02/12 11:28:57;;;;;;;18.33;12.30;;;;;;;;;;9934036;28;20138;-72
2024/02/12 11:33:49;;;;;;;11.50;8.40;;;;;;;;;;9944106;28;20050;-72
2024/02/12 11:38:47;;;;;;;14.75;10.18;;;;;;;;;;9945559;28;20047;-72
2024/02/12 11:43:40;;;;;;;10.98;9.32;;;;;;;;;;9912351;28;20050;-72
2024/02/12 11:48:32;;;;;;;12.68;8.50;;;;;;;;;;9944184;28;20109;-72
2024/02/12 11:53:25;;;;;;;11.32;7.95;;;;;;;;;;9943681;28;20050;-72
2024/02/12 11:58:17;;;;;;;9.93;8.45;;;;;;;;;;9944615;28;20440;-72
2024/02/12 12:03:09;;;;;;;7.20;5.05;;;;;;;;;;9944630;28;20071;-72
2024/02/12 12:08:01;;;;;;;7.47;5.35;;;;;;;;;;9911019;28;20059;-73
2024/02/12 12:12:56;;;;;;;5.30;4.60;;;;;;;;;;9934236;28;20075;-72
2024/02/12 12:17:52;;;;;;;5.90;5.30;;;;;;;;;;9943362;28;20488;-73
2024/02/12 12:22:45;;;;;;;8.35;5.63;;;;;;;;;;9943308;28;20051;-72
2024/02/12 12:27:37;;;;;;;6.53;4.45;;;;;;;;;;9943570;28;20055;-73
2024/02/12 12:32:29;;;;;;;5.40;4.05;;;;;;;;;;9942054;28;20039;-73
2024/02/12 12:37:21;;;;;;;4.38;3.70;;;;;;;;;;9943622;28;20054;-72
2024/02/12 12:42:13;;;;;;;4.88;3.83;;;;;;;;;;9943142;28;20074;-73
2024/02/12 12:47:06;;;;;;;4.70;3.67;;;;;;;;;;9944036;28;20097;-73
2024/02/12 12:51:59;;;;;;;3.13;2.45;;;;;;;;;;9925739;28;20051;-72
2024/02/12 12:56:51;;;;;;;3.40;3.10;;;;;;;;;;9941282;28;20058;-72
2024/02/12 13:01:43;;;;;;;4.05;3.47;;;;;;;;;;9939175;28;20097;-75
2024/02/12 13:06:38;;;;;;;3.85;3.38;;;;;;;;;;9942113;28;20084;-75
2024/02/12 13:11:31;;;;;;;2.97;2.78;;;;;;;;;;9942941;28;20663;-75
2024/02/12 13:16:24;;;;;;;5.22;4.72;;;;;;;;;;9942555;28;20070;-75
2024/02/12 13:21:18;;;;;;;7.75;4.95;;;;;;;;;;9943068;28;20100;-75
2024/02/12 13:26:14;;;;;;;5.78;4.80;;;;;;;;;;9941834;28;20222;-75
2024/02/12 13:31:07;;;;;;;6.38;5.30;;;;;;;;;;9942180;28;20054;-74
2024/02/12 13:36:01;;;;;;;8.20;5.55;;;;;;;;;;9942829;28;20057;-75
2024/02/12 13:40:53;;;;;;;5.45;4.95;;;;;;;;;;9941343;28;20054;-75
2024/02/12 13:45:45;;;;;;;5.95;4.13;;;;;;;;;;9923044;28;20138;-75
2024/02/12 13:50:37;;;;;;;6.03;5.07;;;;;;;;;;9903456;28;20071;-75
2024/02/12 13:55:30;;;;;;;9.18;4.60;;;;;;;;;;9903916;29;20102;-75
2024/02/12 14:00:23;;;;;;;4.82;4.18;;;;;;;;;;9902548;29;20059;-75
2024/02/12 14:05:20;;;;;;;4.70;4.28;;;;;;;;;;9903056;29;20154;-75
2024/02/12 14:10:13;;;;;;;7.28;5.13;;;;;;;;;;9903180;29;20102;-74
2024/02/12 14:15:05;;;;;;;6.40;4.43;;;;;;;;;;9901591;28;20400;-75
2024/02/12 14:20:20;;;;;;;4.43;3.78;;;;;;;;;;9907262;28;20386;-74
2024/02/12 14:25:13;;;;;;;4.25;3.83;;;;;;;;;;9909521;29;20166;-75
2024/02/12 14:30:11;;;;;;;3.60;3.25;;;;;;;;;;9908872;28;20101;-75
2024/02/12 14:35:03;;;;;;;6.03;4.60;;;;;;;;;;9909700;28;20517;-75
2024/02/12 14:40:00;;;;;;;8.50;3.63;;;;;;;;;;9937976;28;20091;-75
2024/02/12 14:44:52;;;;;;;4.50;3.92;;;;;;;;;;9943679;28;20058;-75
2024/02/12 14:49:44;;;;;;;4.22;3.50;;;;;;;;;;9946360;28;20049;-75
2024/02/12 14:54:36;;;;;;;4.15;3.72;;;;;;;;;;9946287;28;20047;-75
2024/02/12 14:59:31;;;;;;;4.63;4.22;;;;;;;;;;9946173;28;20077;-75
2024/02/12 15:04:23;;;;;;;3.88;3.38;;;;;;;;;;9944085;28;20069;-76
2024/02/12 15:09:24;;;;;;;5.75;3.75;;;;;;;;;;9946247;28;20055;-76
2024/02/12 15:14:19;;;;;;;3.65;3.10;;;;;;;;;;9946052;28;20054;-76
2024/02/12 15:19:11;;;;;;;2.85;2.63;;;;;;;;;;9945812;28;20059;-74
2024/02/12 15:24:03;;;;;;;3.55;2.67;;;;;;;;;;9945961;28;20054;-75
2024/02/12 15:28:55;;;;;;;5.35;2.55;;;;;;;;;;9944964;28;20049;-74
2024/02/12 15:33:47;;;;;;;8.73;3.25;;;;;;;;;;9945084;28;20046;-75
2024/02/12 15:38:39;;;;;;;3.95;2.90;;;;;;;;;;9945394;28;20058;-74
2024/02/12 15:43:31;;;;;;;3.03;2.70;;;;;;;;;;9945524;28;20182;-75
2024/02/12 15:48:25;;;;;;;3.42;2.53;;;;;;;;;;9944762;28;20047;-75
2024/02/12 15:53:21;;;;;;;3.10;2.15;;;;;;;;;;9944868;28;20053;-75
2024/02/12 15:58:14;;;;;;;4.82;2.22;;;;;;;;;;9941428;28;20098;-75
2024/02/12 16:03:06;;;;;;;21.90;4.78;;;;;;;;;;9923372;28;20066;-75
2024/02/12 16:08:00;;;;;;;5.55;2.15;;;;;;;;;;9943989;28;20047;-75
2024/02/12 16:12:52;;;;;;;5.07;2.42;;;;;;;;;;9943882;28;20587;-75
2024/02/12 16:17:44;;;;;;;4.97;3.33;;;;;;;;;;9943371;28;20059;-74
2024/02/12 16:22:37;;;;;;;3.97;3.53;;;;;;;;;;9943939;28;20137;-75
2024/02/12 16:27:28;;;;;;;4.32;3.25;;;;;;;;;;9943445;28;20050;-75
2024/02/12 16:32:22;;;;;;;5.68;4.00;;;;;;;;;;9943066;28;20113;-75
2024/02/12 16:37:14;;;;;;;6.57;3.90;;;;;;;;;;9943396;28;20062;-75
2024/02/12 16:42:06;;;;;;;11.05;4.95;;;;;;;;;;9941827;28;20430;-75
2024/02/12 16:46:57;;;;;;;6.78;6.07;;;;;;;;;;9943479;28;20046;-75
2024/02/12 16:51:49;;;;;;;9.77;6.93;;;;;;;;;;9942859;28;20472;-75
2024/02/12 16:56:42;;;;;;;5.07;4.55;;;;;;;;;;9942768;28;20078;-75
2024/02/12 17:01:34;;;;;;;6.53;4.50;;;;;;;;;;9943003;28;20054;-75
2024/02/12 17:06:27;;;;;;;5.43;4.93;;;;;;;;;;9942319;28;20047;-74
2024/02/12 17:11:20;;;;;;;8.93;7.10;;;;;;;;;;9942965;28;20462;-75
2024/02/12 17:16:15;;;;;;;9.30;7.25;;;;;;;;;;9942161;28;20074;-75
2024/02/12 17:21:17;;;;;;;7.60;5.25;;;;;;;;;;9942586;28;20039;-75
2024/02/12 17:26:10;;;;;;;5.15;4.65;;;;;;;;;;9941496;28;20047;-75
2024/02/12 17:31:05;;;;;;;12.65;7.78;;;;;;;;;;9941408;28;20477;-75
2024/02/12 17:35:58;;;;;;;9.77;8.15;;;;;;;;;;9943220;28;20047;-75
2024/02/12 17:40:50;;;;;;;14.18;9.57;;;;;;;;;;9942656;28;20065;-75
2024/02/12 17:45:42;;;;;;;8.25;7.25;;;;;;;;;;9942444;28;20199;-75
2024/02/12 17:50:35;;;;;;;7.75;7.05;;;;;;;;;;9942458;28;20066;-74
2024/02/12 17:55:27;;;;;;;11.93;9.52;;;;;;;;;;9948301;28;20066;-75
2024/02/12 18:00:20;;;;;;;12.38;10.85;;;;;;;;;;9949612;28;20051;-75
2024/02/12 18:05:14;;;;;;;11.55;10.43;;;;;;;;;;9949460;28;20101;-75
2024/02/12 18:10:07;;;;;;;16.42;14.15;;;;;;;;;;9948909;28;20090;-75
2024/02/12 18:14:59;;;;;;;12.73;11.48;;;;;;;;;;9932157;28;20454;-76
2024/02/12 18:19:52;;;;;;;15.93;10.80;;;;;;;;;;9947703;28;20069;-76
2024/02/12 18:24:46;;;;;;;14.82;12.52;;;;;;;;;;9948014;28;20134;-75
2024/02/12 18:29:38;;;;;;;13.45;12.07;;;;;;;;;;9947507;28;20047;-76
2024/02/12 18:34:30;;;;;;;13.65;12.35;;;;;;;;;;9948297;28;20050;-76
2024/02/12 18:39:22;;;;;;;12.32;11.13;;;;;;;;;;9947646;28;20043;-75
2024/02/12 18:44:14;;;;;;;38.22;20.52;;;;;;;;;;9947305;28;20086;-76
2024/02/12 18:49:07;;;;;;;14.50;12.95;;;;;;;;;;9930417;28;20386;-75
2024/02/12 18:53:59;;;;;;;14.25;12.85;;;;;;;;;;9904710;29;20533;-75
2024/02/12 18:58:52;;;;;;;19.45;17.65;;;;;;;;;;9915336;28;20051;-75
2024/02/12 19:03:50;;;;;;;15.20;11.48;;;;;;;;;;9941432;28;20051;-75
2024/02/12 19:08:44;;;;;;;11.85;10.50;;;;;;;;;;9933485;28;20163;-75
2024/02/12 19:13:36;;;;;;;16.50;12.77;;;;;;;;;;9918821;28;20043;-74
2024/02/12 19:18:28;;;;;;;17.90;13.30;;;;;;;;;;9940089;28;20050;-76
2024/02/12 19:23:21;;;;;;;16.85;11.35;;;;;;;;;;9941899;28;20526;-76
2024/02/12 19:28:13;;;;;;;20.67;14.05;;;;;;;;;;9944367;28;20149;-76
2024/02/12 19:33:05;;;;;;;19.25;14.20;;;;;;;;;;9944183;28;20082;-76
2024/02/12 19:37:58;;;;;;;21.90;14.10;;;;;;;;;;9941781;28;20046;-74
2024/02/12 19:42:50;;;;;;;17.05;12.35;;;;;;;;;;9937741;28;20070;-74
2024/02/12 19:47:42;;;;;;;20.92;15.30;;;;;;;;;;9939656;28;20146;-75
2024/02/12 19:52:34;;;;;;;30.52;19.50;;;;;;;;;;9939589;28;20354;-75
2024/02/12 19:57:27;;;;;;;16.77;13.15;;;;;;;;;;9937672;28;20201;-75
2024/02/12 20:02:19;;;;;;;19.83;14.27;;;;;;;;;;9930814;28;20371;-74
2024/02/12 20:07:11;;;;;;;28.05;17.30;;;;;;;;;;9936545;28;20046;-77
2024/02/12 20:12:03;;;;;;;20.17;17.75;;;;;;;;;;9925404;28;20047;-77
2024/02/12 20:16:55;;;;;;;17.40;15.70;;;;;;;;;;9905404;28;20051;-79
2024/02/12 20:21:47;;;;;;;15.80;14.20;;;;;;;;;;9920760;28;20195;-78
2024/02/12 20:26:39;;;;;;;16.27;14.57;;;;;;;;;;9915505;28;20058;-77
2024/02/12 20:31:31;;;;;;;11.85;10.50;;;;;;;;;;9923309;28;20209;-78
2024/02/12 20:36:25;;;;;;;10.95;9.90;;;;;;;;;;9922788;28;20129;-78
2024/02/12 20:41:20;;;;;;;10.15;8.13;;;;;;;;;;9925306;28;20047;-78
2024/02/12 20:46:12;;;;;;;11.43;8.50;;;;;;;;;;9933216;28;20378;-79
2024/02/12 20:51:04;;;;;;;8.20;7.40;;;;;;;;;;9925897;28;20051;-78
2024/02/12 20:55:56;;;;;;;5.80;5.20;;;;;;;;;;9917825;28;20069;-78
2024/02/12 21:00:48;;;;;;;4.78;4.28;;;;;;;;;;9922327;28;20039;-78
2024/02/12 21:05:40;;;;;;;5.03;4.22;;;;;;;;;;9898267;29;20055;-78
2024/02/12 21:10:32;;;;;;;12.43;11.15;;;;;;;;;;9918773;28;20051;-78
2024/02/12 21:15:24;;;;;;;8.85;6.28;;;;;;;;;;9931757;28;20058;-80
2024/02/12 21:20:16;;;;;;;5.45;4.95;;;;;;;;;;9925657;28;20085;-78
2024/02/12 21:25:08;;;;;;;4.47;4.07;;;;;;;;;;9925650;28;20142;-79
2024/02/12 21:30:01;;;;;;;5.82;4.85;;;;;;;;;;9943898;28;20133;-79
2024/02/12 21:34:55;;;;;;;6.70;5.55;;;;;;;;;;9942058;28;20047;-79
2024/02/12 21:39:48;;;;;;;5.78;4.07;;;;;;;;;;9940373;28;20454;-79
2024/02/12 21:44:40;;;;;;;5.47;4.82;;;;;;;;;;9929062;28;20126;-79
2024/02/12 21:49:32;;;;;;;9.60;6.35;;;;;;;;;;9943531;28;20106;-77
2024/02/12 21:54:24;;;;;;;12.45;7.65;;;;;;;;;;9946389;28;20089;-79
2024/02/12 21:59:16;;;;;;;6.82;4.63;;;;;;;;;;9938949;28;20489;-77
2024/02/12 22:04:09;;;;;;;5.78;5.10;;;;;;;;;;9925856;28;20539;-79
2024/02/12 22:09:01;;;;;;;8.60;7.10;;;;;;;;;;9944942;28;20047;-77
2024/02/12 22:13:53;;;;;;;12.48;8.27;;;;;;;;;;9937840;28;20042;-77
2024/02/12 22:18:45;;;;;;;11.93;9.55;;;;;;;;;;9945539;28;20094;-77
2024/02/12 22:23:37;;;;;;;7.30;6.60;;;;;;;;;;9940419;28;20051;-77
2024/02/12 22:28:29;;;;;;;8.90;7.15;;;;;;;;;;9959260;28;20478;-78
2024/02/12 22:33:21;;;;;;;11.32;10.00;;;;;;;;;;9941483;28;20053;-78
2024/02/12 22:38:14;;;;;;;11.70;10.60;;;;;;;;;;9945177;28;20058;-78
2024/02/12 22:43:06;;;;;;;8.80;7.57;;;;;;;;;;9938337;28;20069;-78
2024/02/12 22:47:58;;;;;;;7.70;6.88;;;;;;;;;;9945974;28;20118;-78
2024/02/12 22:52:50;;;;;;;7.18;6.45;;;;;;;;;;9940057;28;20082;-78
2024/02/12 22:57:43;;;;;;;5.97;5.47;;;;;;;;;;9946252;28;20039;-77
2024/02/12 23:02:35;;;;;;;10.90;7.40;;;;;;;;;;9925835;28;20046;-79
2024/02/12 23:07:27;;;;;;;8.52;7.63;;;;;;;;;;9941898;28;20047;-80
2024/02/12 23:12:19;;;;;;;7.72;7.03;;;;;;;;;;9933384;28;20057;-79
2024/02/12 23:17:11;;;;;;;13.07;9.73;;;;;;;;;;9943915;28;20059;-79
2024/02/12 23:22:03;;;;;;;10.85;9.80;;;;;;;;;;9935789;28;20833;-79
2024/02/12 23:26:55;;;;;;;9.05;8.15;;;;;;;;;;9943710;28;20058;-78
2024/02/12 23:31:47;;;;;;;9.05;8.25;;;;;;;;;;9941380;28;20176;-77
2024/02/12 23:36:39;;;;;;;8.85;8.05;;;;;;;;;;9940843;28;20078;-78
2024/02/12 23:41:31;;;;;;;9.02;8.23;;;;;;;;;;9941693;28;20039;-78
2024/02/12 23:46:23;;;;;;;9.45;8.55;;;;;;;;;;9943999;28;20371;-78
2024/02/12 23:51:15;;;;;;;9.73;8.85;;;;;;;;;;9943768;28;20057;-77
2024/02/12 23:56:07;;;;;;;10.70;9.70;;;;;;;;;;9943583;28;20359;-78
